Kampenhout, Belgium
Current Conditions -  °F | °C
As of 1:50 AM on Sunday 21 Dec 2014 (Local Time) from EBBR Reporting Station
Few Clouds Few Clouds  
Wind Chill: 33°   Ceiling: Unl
Heat Index: 39°   Visibility: 6mi
Dew Point: 36°   Wind: 9mph
Humidity: 87%   Direction: 230°SW
Pressure: 30.42"   Gusts: NA
Location:  50.94°N, 4.55°E
Report Text: EBBR 210050Z 23008KT 9999 FEW023 04/02 Q1030 NOSIG
Loading
Personal Weather Stations






























Interactive Weather Map New forecast layout! Learn more

10-Day Weather Forecast

Advertisements
Track Severe Weather on mobile